Time;durP1;ratioP1;P1;durP2;ratioP2;P2;SDS_P1;SDS_P2;PMS_P1;PMS_P2;Temp;Humidity;BMP_temperature;BMP_pressure;BME280_temperature;BME280_humidity;BME280_pressure;Samples;Min_cycle;Max_cycle;Signal;HPM_P1;HPM_P2
2021/11/20 00:01:58;;;;;;;11.18;8.35;;;;;;;17.52;31.10;94995.91;5053218;28;20049;-57
2021/11/20 00:04:29;;;;;;;9.65;7.75;;;;;;;17.66;30.84;94995.69;5069600;28;20040;-61
2021/11/20 00:06:59;;;;;;;8.75;7.72;;;;;;;17.76;30.60;95000.69;5073802;28;20051;-57
2021/11/20 00:09:27;;;;;;;9.50;7.70;;;;;;;17.83;30.56;94989.63;5073641;28;20348;-60
2021/11/20 00:11:58;;;;;;;9.88;8.02;;;;;;;17.72;30.98;94994.50;5075457;28;20048;-61
2021/11/20 00:14:26;;;;;;;9.75;7.78;;;;;;;17.90;30.59;94994.41;5076366;28;20056;-62
2021/11/20 00:16:54;;;;;;;8.48;7.57;;;;;;;17.37;31.56;94998.25;5077304;28;20044;-59
2021/11/20 00:19:23;;;;;;;10.10;7.88;;;;;;;18.00;30.85;94983.50;5076603;28;20049;-59
2021/11/20 00:21:54;;;;;;;9.32;7.55;;;;;;;17.55;31.16;94992.63;5075600;28;20048;-60
2021/11/20 00:24:26;;;;;;;10.23;7.53;;;;;;;17.38;31.91;94989.22;5075621;28;20048;-55
2021/11/20 00:26:55;;;;;;;8.27;7.25;;;;;;;17.58;31.49;94988.56;5077146;28;20044;-42
2021/11/20 00:29:27;;;;;;;8.95;7.60;;;;;;;17.54;31.69;95001.66;5076983;28;20047;-44
2021/11/20 00:31:58;;;;;;;8.57;6.88;;;;;;;17.43;31.87;94997.75;5076860;28;20053;-50
2021/11/20 00:34:31;;;;;;;8.43;7.35;;;;;;;17.27;32.49;94986.91;5058827;28;20051;-45
2021/11/20 00:36:59;;;;;;;10.05;8.02;;;;;;;17.24;32.40;94990.19;5076885;28;20049;-52
2021/11/20 00:39:30;;;;;;;8.45;7.13;;;;;;;17.69;31.43;94989.03;5075745;28;20351;-46
2021/11/20 00:41:57;;;;;;;11.68;7.90;;;;;;;17.39;32.17;94996.06;5059117;28;20041;-43
2021/11/20 00:44:25;;;;;;;9.18;8.10;;;;;;;17.68;31.75;94993.53;5076420;28;20044;-44
2021/11/20 00:46:54;;;;;;;8.90;7.05;;;;;;;17.75;31.58;94993.84;5076654;28;20051;-45
2021/11/20 00:49:22;;;;;;;7.85;6.43;;;;;;;18.01;31.35;94995.63;5058891;28;20459;-49
2021/11/20 00:51:52;;;;;;;9.48;7.53;;;;;;;17.73;31.50;94990.75;5076006;28;20059;-44
2021/11/20 00:54:19;;;;;;;9.57;7.47;;;;;;;17.83;31.55;94984.34;5058586;28;20059;-46
2021/11/20 00:56:47;;;;;;;9.30;7.47;;;;;;;17.80;31.75;94991.03;5076608;28;20040;-51
2021/11/20 00:59:15;;;;;;;9.23;7.60;;;;;;;17.63;32.23;94988.41;5075411;28;20047;-49
2021/11/20 01:01:49;;;;;;;9.32;7.63;;;;;;;17.43;32.56;94987.19;5057983;28;20473;-45
2021/11/20 01:04:17;;;;;;;9.65;8.00;;;;;;;17.51;32.29;94993.56;5058137;28;20344;-52
2021/11/20 01:06:46;;;;;;;7.78;6.82;;;;;;;17.63;32.19;94987.63;5075124;28;20040;-45
2021/11/20 01:09:16;;;;;;;8.50;7.03;;;;;;;17.73;32.35;94982.81;5057492;28;20048;-45
2021/11/20 01:11:47;;;;;;;7.85;7.05;;;;;;;17.63;32.21;94975.19;5058544;28;20359;-48
2021/11/20 01:14:18;;;;;;;10.45;7.47;;;;;;;17.45;32.58;94971.03;5057446;28;20378;-51
2021/11/20 01:16:47;;;;;;;9.45;7.80;;;;;;;17.98;31.71;94960.00;5075591;28;20048;-44
2021/11/20 01:19:16;;;;;;;7.80;7.00;;;;;;;17.57;32.42;94977.22;5058278;28;20052;-43
2021/11/20 01:22:04;;;;;;;7.78;6.97;;;;;;;17.58;32.87;94972.72;5075445;28;20465;-47
2021/11/20 01:24:39;;;;;;;10.02;7.15;;;;;;;17.50;32.95;94973.50;5057460;28;20053;-44
2021/11/20 01:27:11;;;;;;;9.70;7.17;;;;;;;17.60;32.68;94967.88;5037483;28;20068;-44
2021/11/20 01:29:41;;;;;;;8.25;6.43;;;;;;;18.08;32.16;94974.75;5038226;28;20271;-44
2021/11/20 01:32:09;;;;;;;9.43;6.95;;;;;;;17.68;32.53;94971.63;5034903;28;20057;-44
2021/11/20 01:34:36;;;;;;;7.82;6.97;;;;;;;17.53;32.90;94981.59;5052468;28;20048;-47
2021/11/20 01:37:06;;;;;;;9.20;7.38;;;;;;;17.61;32.70;94974.72;5075034;28;20055;-44
2021/11/20 01:39:39;;;;;;;9.73;7.35;;;;;;;17.59;32.78;94974.25;5057591;28;20041;-47
2021/11/20 01:42:20;;;;;;;7.80;7.00;;;;;;;18.54;31.06;94981.03;5054390;28;20048;-59
2021/11/20 01:45:27;;;;;;;9.10;7.55;;;;;;;17.95;32.10;94981.78;5053834;28;20044;-58
2021/11/20 01:48:01;;;;;;;8.70;7.20;;;;;;;17.65;32.64;94977.50;5055383;28;20044;-53
2021/11/20 01:50:40;;;;;;;7.32;6.40;;;;;;;17.61;32.94;94993.22;5057629;28;20041;-53
2021/11/20 01:53:19;;;;;;;7.03;6.30;;;;;;;17.68;32.79;94984.84;5053562;28;20048;-43
2021/11/20 01:56:28;;;;;;;8.25;6.43;;;;;;;17.68;32.99;94971.63;5040512;28;20048;-52
2021/11/20 01:59:03;;;;;;;9.02;6.72;;;;;;;18.12;32.01;94965.84;5033143;28;20064;-47
2021/11/20 02:02:12;;;;;;;6.95;5.88;;;;;;;18.01;32.26;94969.19;5033070;28;20073;-60
2021/11/20 02:05:10;;;;;;;7.72;6.57;;;;;;;17.66;33.13;94963.97;5058804;28;20048;-44
2021/11/20 02:07:54;;;;;;;6.70;6.00;;;;;;;17.76;33.05;94966.31;5057668;28;20115;-45
2021/11/20 02:10:36;;;;;;;6.95;6.20;;;;;;;17.91;32.52;94954.41;5057509;28;20047;-44
2021/11/20 02:13:11;;;;;;;6.45;5.57;;;;;;;18.19;32.26;94954.75;5057072;28;20044;-51
2021/11/20 02:15:46;;;;;;;7.68;6.15;;;;;;;18.06;32.20;94953.13;5057282;28;20056;-49
2021/11/20 02:18:19;;;;;;;7.18;6.22;;;;;;;17.74;32.79;94954.50;5056682;28;20055;-45
2021/11/20 02:21:05;;;;;;;7.13;5.90;;;;;;;18.15;32.06;94951.97;5074611;28;20051;-51
2021/11/20 02:23:42;;;;;;;7.18;6.22;;;;;;;17.96;32.45;94945.56;5042639;28;20044;-44
2021/11/20 02:26:10;;;;;;;7.07;5.35;;;;;;;17.85;32.53;94945.91;5057168;28;20048;-48
2021/11/20 02:28:48;;;;;;;6.30;5.60;;;;;;;18.43;31.68;94941.69;5056931;28;20044;-46
2021/11/20 02:31:50;;;;;;;6.88;5.72;;;;;;;18.51;31.29;94947.28;5055881;28;20054;-46
2021/11/20 02:34:19;;;;;;;6.20;5.60;;;;;;;17.77;32.72;94930.84;5046180;28;20044;-47
2021/11/20 02:36:48;;;;;;;7.15;5.78;;;;;;;18.09;32.10;94934.75;5056720;28;20048;-44
2021/11/20 02:39:19;;;;;;;5.47;4.97;;;;;;;18.44;31.46;94943.25;5056831;28;20044;-46
2021/11/20 02:41:52;;;;;;;5.97;5.37;;;;;;;17.92;32.42;94932.16;5056887;28;20055;-50
2021/11/20 02:44:22;;;;;;;6.05;4.95;;;;;;;17.95;32.44;94926.25;5056595;28;20282;-42
2021/11/20 02:46:59;;;;;;;6.07;4.82;;;;;;;17.88;32.65;94924.09;5056771;28;20048;-43
2021/11/20 02:49:30;;;;;;;6.05;5.43;;;;;;;17.84;32.77;94928.47;5074412;28;20045;-45
2021/11/20 02:52:15;;;;;;;6.88;5.30;;;;;;;18.31;31.96;94924.97;5055785;28;20052;-43
2021/11/20 02:54:45;;;;;;;6.88;5.38;;;;;;;19.01;30.93;94921.53;5056818;28;20055;-48
2021/11/20 02:57:16;;;;;;;5.80;5.22;;;;;;;18.72;31.36;94911.00;5052146;28;20076;-51
2021/11/20 02:59:44;;;;;;;6.17;5.50;;;;;;;18.26;32.21;94918.00;5017617;28;20053;-47
2021/11/20 03:02:16;;;;;;;6.17;5.47;;;;;;;18.33;32.12;94920.13;5035600;28;20055;-42
2021/11/20 03:04:45;;;;;;;8.02;6.32;;;;;;;17.81;33.16;94912.47;5049342;28;20278;-51
2021/11/20 03:07:13;;;;;;;6.68;5.72;;;;;;;17.64;33.39;94910.63;5056231;28;20059;-44
2021/11/20 03:09:41;;;;;;;6.55;5.55;;;;;;;18.22;32.26;94911.03;5056806;28;20036;-51
2021/11/20 03:12:15;;;;;;;6.65;5.28;;;;;;;17.95;32.78;94906.94;5056548;28;20485;-49
2021/11/20 03:14:48;;;;;;;8.32;5.57;;;;;;;18.35;32.03;94902.06;5053303;28;20056;-48
2021/11/20 03:17:17;;;;;;;6.28;5.68;;;;;;;18.41;31.97;94904.19;5055871;28;20052;-49
2021/11/20 03:19:48;;;;;;;5.82;5.25;;;;;;;18.03;32.87;94908.78;5056587;28;20387;-45
2021/11/20 03:22:39;;;;;;;5.82;5.30;;;;;;;18.54;31.71;94906.91;5055670;28;20056;-45
2021/11/20 03:25:07;;;;;;;6.80;5.68;;;;;;;18.03;32.68;94898.22;5055996;28;20055;-62
2021/11/20 03:27:35;;;;;;;6.18;5.43;;;;;;;18.15;32.53;94898.28;5056234;28;20055;-46
2021/11/20 03:30:06;;;;;;;7.40;5.70;;;;;;;18.24;32.53;94899.03;5056544;28;20048;-44
2021/11/20 03:32:36;;;;;;;7.10;6.03;;;;;;;18.90;31.32;94911.63;5056374;28;20048;-45
2021/11/20 03:35:05;;;;;;;7.65;5.63;;;;;;;18.21;32.44;94899.63;5055414;28;20045;-52
2021/11/20 03:37:32;;;;;;;6.43;5.72;;;;;;;18.08;32.57;94911.25;5056338;28;20048;-57
2021/11/20 03:40:00;;;;;;;5.93;5.22;;;;;;;18.12;32.88;94912.94;5056426;28;20049;-45
2021/11/20 03:42:27;;;;;;;6.82;5.13;;;;;;;17.87;33.16;94922.53;5055752;28;20048;-47
2021/11/20 03:44:54;;;;;;;6.95;6.18;;;;;;;17.68;33.49;94914.22;5056419;28;20040;-44
2021/11/20 03:47:23;;;;;;;7.78;5.70;;;;;;;18.23;32.69;94912.56;5059079;28;20056;-46
2021/11/20 03:49:50;;;;;;;6.65;5.88;;;;;;;18.01;32.89;94910.97;5060738;28;20355;-43
2021/11/20 03:52:19;;;;;;;5.75;4.97;;;;;;;18.07;32.77;94921.06;5059498;28;20406;-57
2021/11/20 03:54:51;;;;;;;5.70;5.07;;;;;;;18.18;32.67;94926.75;5060363;28;20155;-49
2021/11/20 03:57:19;;;;;;;5.97;4.95;;;;;;;18.09;32.79;94926.03;5059769;28;20040;-43
2021/11/20 03:59:48;;;;;;;6.63;5.60;;;;;;;18.18;32.69;94922.22;5077729;28;20401;-47
2021/11/20 04:02:17;;;;;;;7.40;5.57;;;;;;;18.15;32.89;94925.53;5059884;28;20621;-50
2021/11/20 04:04:45;;;;;;;8.85;5.63;;;;;;;18.14;32.77;94921.31;5057564;28;20071;-45
2021/11/20 04:07:13;;;;;;;6.18;5.53;;;;;;;18.20;32.57;94924.56;5059551;28;20044;-44
2021/11/20 04:09:40;;;;;;;6.20;5.60;;;;;;;18.55;32.04;94921.69;5059867;28;20044;-43
2021/11/20 04:12:10;;;;;;;6.20;5.40;;;;;;;18.23;32.75;94923.16;5077258;28;20459;-42
2021/11/20 04:14:40;;;;;;;7.03;5.70;;;;;;;18.13;32.67;94908.41;5077452;28;20044;-42
2021/11/20 04:17:07;;;;;;;6.50;5.68;;;;;;;18.65;32.11;94929.28;5066568;28;20048;-56
2021/11/20 04:19:36;;;;;;;5.97;4.90;;;;;;;18.94;31.48;94931.84;5056265;28;20045;-45
2021/11/20 04:22:05;;;;;;;7.05;5.60;;;;;;;18.66;31.80;94944.06;5058630;28;20044;-46
2021/11/20 04:24:33;;;;;;;6.90;5.45;;;;;;;18.08;32.86;94933.19;5059452;28;20273;-58
2021/11/20 04:27:20;;;;;;;5.57;4.93;;;;;;;18.47;32.12;94934.66;5076415;28;20044;-44
2021/11/20 04:30:08;;;;;;;6.57;5.32;;;;;;;19.97;29.39;94934.53;5065373;28;20048;-45
2021/11/20 04:32:35;;;;;;;6.43;5.18;;;;;;;19.69;29.79;94935.19;5039262;28;20332;-44
2021/11/20 04:35:05;;;;;;;8.60;5.38;;;;;;;19.09;30.63;94939.22;5041380;28;20057;-54
2021/11/20 04:37:32;;;;;;;6.25;5.30;;;;;;;18.54;31.84;94939.47;5068440;28;20048;-53
2021/11/20 04:40:01;;;;;;;7.05;5.30;;;;;;;18.54;31.87;94938.69;5042785;28;20049;-59
2021/11/20 04:42:28;;;;;;;6.95;5.05;;;;;;;19.32;30.61;94938.84;5076140;28;20044;-63
2021/11/20 04:44:55;;;;;;;6.57;5.60;;;;;;;18.49;32.04;94927.19;5078399;28;20051;-63
2021/11/20 04:47:23;;;;;;;6.40;5.28;;;;;;;18.61;31.92;94929.13;5076412;28;20273;-44
2021/11/20 04:49:50;;;;;;;5.88;4.93;;;;;;;18.61;31.98;94918.53;5059145;28;20053;-43
2021/11/20 04:52:17;;;;;;;6.50;5.28;;;;;;;18.46;31.87;94911.16;5058106;28;20649;-51
2021/11/20 04:54:46;;;;;;;5.13;4.30;;;;;;;18.74;31.46;94906.94;5049963;28;20052;-56
2021/11/20 04:57:13;;;;;;;5.20;4.60;;;;;;;18.44;32.00;94898.25;5074627;28;20055;-47
2021/11/20 04:59:40;;;;;;;5.68;4.68;;;;;;;18.51;31.83;94912.84;5057898;28;20045;-55
2021/11/20 05:02:09;;;;;;;6.38;5.00;;;;;;;19.80;29.80;94908.25;5055370;28;20049;-61
2021/11/20 05:04:38;;;;;;;5.45;4.60;;;;;;;18.84;31.25;94900.47;5038722;28;20049;-63
2021/11/20 05:07:06;;;;;;;5.65;4.50;;;;;;;19.50;30.10;94900.44;5068634;28;20371;-65
2021/11/20 05:09:34;;;;;;;5.57;4.68;;;;;;;18.59;31.79;94901.41;5038794;28;20041;-48
2021/11/20 05:12:03;;;;;;;4.90;4.40;;;;;;;18.74;31.27;94900.88;5038592;28;20048;-47
2021/11/20 05:14:30;;;;;;;4.57;4.13;;;;;;;18.92;31.15;94896.97;5038747;28;20049;-47
2021/11/20 05:16:57;;;;;;;7.05;4.47;;;;;;;19.61;29.91;94901.59;5047541;28;20506;-43
2021/11/20 05:19:24;;;;;;;20.38;5.30;;;;;;;19.23;30.72;94893.06;5056132;28;20467;-45
2021/11/20 05:21:51;;;;;;;4.80;4.30;;;;;;;19.60;30.25;94905.34;5045013;28;20044;-45
2021/11/20 05:24:21;;;;;;;5.45;4.55;;;;;;;18.95;31.28;94906.91;5058386;28;20052;-44
2021/11/20 05:26:53;;;;;;;5.60;4.43;;;;;;;19.77;29.75;94898.28;5057181;28;20048;-48
2021/11/20 05:29:39;;;;;;;;;;;;;;;18.68;31.47;94908.22;5057424;28;20047;-44
2021/11/20 05:32:07;;;;;;;5.03;4.30;;;;;;;18.95;31.13;94912.19;5075942;28;19916;-45
2021/11/20 05:34:40;;;;;;;6.60;4.80;;;;;;;19.02;31.25;94907.16;5058404;28;20383;-48
2021/11/20 05:37:08;;;;;;;5.35;4.28;;;;;;;18.96;31.17;94908.44;5057768;28;20482;-62
2021/11/20 05:39:37;;;;;;;4.93;4.40;;;;;;;19.01;31.13;94916.22;5057910;28;20055;-48
2021/11/20 05:42:05;;;;;;;4.85;4.07;;;;;;;18.62;31.82;94914.00;5057904;28;20056;-45
2021/11/20 05:44:32;;;;;;;5.57;4.63;;;;;;;19.68;30.26;94917.72;5041645;28;20040;-43
2021/11/20 05:47:05;;;;;;;6.07;4.32;;;;;;;19.24;30.80;94907.88;5057727;28;20358;-49
2021/11/20 05:49:39;;;;;;;5.68;4.85;;;;;;;19.06;31.22;94923.97;5075528;28;20044;-48
2021/11/20 05:52:12;;;;;;;4.47;3.97;;;;;;;18.93;31.53;94937.47;5047021;28;20037;-45
2021/11/20 05:54:41;;;;;;;5.15;4.03;;;;;;;18.61;31.76;94944.25;5055703;28;20371;-45
2021/11/20 05:57:12;;;;;;;6.07;4.35;;;;;;;19.00;31.04;94948.34;5049408;28;20048;-47
2021/11/20 05:59:40;;;;;;;5.13;4.28;;;;;;;19.26;30.90;94937.50;5057623;28;20048;-46
2021/11/20 06:02:10;;;;;;;6.32;4.88;;;;;;;18.99;31.27;94950.19;5057542;28;20040;-64
2021/11/20 06:04:44;;;;;;;8.55;5.45;;;;;;;18.63;31.88;94953.44;5056709;28;20052;-46
2021/11/20 06:07:12;;;;;;;6.28;5.13;;;;;;;18.72;31.58;94945.41;5057320;28;20053;-45
2021/11/20 06:09:42;;;;;;;5.55;4.78;;;;;;;18.94;31.09;94942.44;5057758;28;20055;-62
2021/11/20 06:12:11;;;;;;;6.57;5.22;;;;;;;20.22;29.20;94930.00;5049710;28;20041;-63
2021/11/20 06:14:40;;;;;;;5.32;4.78;;;;;;;20.57;28.09;94925.03;5041821;28;20048;-62
2021/11/20 06:17:07;;;;;;;7.18;5.20;;;;;;;20.47;28.68;94931.56;5057072;28;20037;-46
2021/11/20 06:19:35;;;;;;;6.05;5.35;;;;;;;19.68;29.67;94941.59;5055084;28;20359;-56
2021/11/20 06:22:03;;;;;;;6.30;5.22;;;;;;;20.28;28.54;94933.97;5063087;28;20466;-61
2021/11/20 06:24:31;;;;;;;6.43;4.90;;;;;;;19.91;29.39;94941.19;5040323;28;20060;-61
2021/11/20 06:26:58;;;;;;;5.85;5.25;;;;;;;19.69;29.71;94940.50;5057046;28;20041;-59
2021/11/20 06:29:25;;;;;;;7.38;5.65;;;;;;;19.37;30.13;94933.34;5057114;28;20044;-64
2021/11/20 06:32:03;;;;;;;5.72;4.78;;;;;;;20.58;28.25;94942.50;5037278;28;20041;-58
2021/11/20 06:35:00;;;;;;;8.13;5.30;;;;;;;19.77;29.52;94948.66;5043302;28;20052;-53
2021/11/20 06:37:37;;;;;;;6.93;5.15;;;;;;;20.27;28.79;94943.81;5056849;28;20047;-61
2021/11/20 06:40:15;;;;;;;7.82;5.38;;;;;;;19.95;29.07;94939.41;5052574;28;20359;-65
2021/11/20 06:42:43;;;;;;;5.95;5.18;;;;;;;19.92;29.15;94956.00;5056477;28;20486;-54
2021/11/20 06:45:14;;;;;;;7.55;5.50;;;;;;;19.56;29.83;94957.50;5055888;28;20052;-56
2021/11/20 06:47:41;;;;;;;6.28;5.07;;;;;;;20.42;28.46;94957.56;5056518;28;20055;-49
2021/11/20 06:50:10;;;;;;;6.53;4.90;;;;;;;22.52;25.44;94950.56;5052943;28;20457;-54
2021/11/20 06:53:08;;;;;;;6.00;5.13;;;;;;;21.16;27.41;94935.03;5052437;28;20044;-60
2021/11/20 06:56:14;;;;;;;7.93;5.70;;;;;;;20.32;28.28;94948.94;5008112;28;20047;-48
2021/11/20 07:00:26;;;;;;;6.75;4.60;;;;;;;19.58;29.79;94944.69;5035074;28;20356;-45
2021/11/20 07:02:33;;;;;;;6.10;4.88;;;;;;;20.40;28.75;94946.50;5036653;28;20468;-49
2021/11/20 07:05:01;;;;;;;5.45;4.60;;;;;;;19.91;28.95;94946.50;5042070;28;20048;-52
2021/11/20 07:07:28;;;;;;;5.63;4.75;;;;;;;19.87;29.06;94958.88;5056429;28;20048;-53
2021/11/20 07:09:56;;;;;;;5.72;4.65;;;;;;;19.82;29.34;94957.22;5074421;28;20044;-68
2021/11/20 07:12:23;;;;;;;6.32;4.43;;;;;;;19.38;29.76;94948.91;5048865;28;20041;-69
2021/11/20 07:14:50;;;;;;;4.97;4.47;;;;;;;19.98;28.65;94938.75;5048446;28;20053;-55
2021/11/20 07:17:17;;;;;;;5.10;4.40;;;;;;;21.18;26.95;94932.78;5062689;28;20059;-67
2021/11/20 07:20:15;;;;;;;5.80;4.47;;;;;;;19.92;29.08;94935.53;4971351;28;20346;-68
2021/11/20 07:23:17;;;;;;;5.53;4.55;;;;;;;19.81;29.12;94936.31;5076877;28;20390;-68
2021/11/20 07:25:44;;;;;;;5.93;5.00;;;;;;;20.37;28.15;94931.22;5060239;28;20366;-68
2021/11/20 07:28:13;;;;;;;6.47;4.53;;;;;;;21.04;27.28;94932.41;5058491;28;20056;-68
2021/11/20 07:30:41;;;;;;;4.88;4.35;;;;;;;19.80;28.79;94919.63;5057066;28;20040;-67
2021/11/20 07:33:10;;;;;;;7.10;4.72;;;;;;;20.12;28.40;94915.31;5057189;28;20045;-68
2021/11/20 07:35:37;;;;;;;4.93;4.35;;;;;;;20.05;28.48;94924.94;5045027;28;20485;-53
2021/11/20 07:38:08;;;;;;;4.80;4.10;;;;;;;19.83;28.72;94915.53;5078518;28;20060;-49
2021/11/20 07:40:37;;;;;;;4.57;3.92;;;;;;;19.75;28.66;94927.00;5059371;28;20056;-68
2021/11/20 07:43:06;;;;;;;5.13;4.50;;;;;;;19.57;28.97;94931.75;5060570;28;20052;-55
2021/11/20 07:45:56;;;;;;;5.68;4.30;;;;;;;19.46;29.08;94920.75;5063600;28;20048;-68
2021/11/20 07:48:25;;;;;;;5.03;4.07;;;;;;;19.31;29.47;94927.47;5077861;28;20052;-68
2021/11/20 07:50:56;;;;;;;6.13;4.60;;;;;;;19.33;29.31;94938.50;5059213;28;20375;-68
2021/11/20 07:53:42;;;;;;;6.18;4.80;;;;;;;19.66;29.00;94943.81;5040089;28;20414;-68
2021/11/20 07:56:11;;;;;;;6.68;3.95;;;;;;;19.18;29.39;94946.28;5059273;28;20045;-48
2021/11/20 07:58:40;;;;;;;4.97;4.25;;;;;;;18.83;30.20;94941.31;5058982;28;20052;-47
2021/11/20 08:01:09;;;;;;;6.10;4.43;;;;;;;20.52;27.68;94941.19;5059689;28;20052;-68
2021/11/20 08:03:38;;;;;;;6.43;4.45;;;;;;;19.67;28.80;94944.59;5042131;28;20045;-57
2021/11/20 08:06:28;;;;;;;5.15;4.10;;;;;;;19.67;28.56;94936.63;5051127;28;20048;-67
2021/11/20 08:09:03;;;;;;;6.75;4.45;;;;;;;20.09;28.19;94939.88;5077285;28;20455;-52
2021/11/20 08:11:49;;;;;;;5.25;4.13;;;;;;;20.66;27.35;94949.56;5077435;28;20379;-47
2021/11/20 08:14:19;;;;;;;5.50;4.20;;;;;;;19.61;28.57;94938.72;5077406;28;20471;-68
2021/11/20 08:16:47;;;;;;;5.32;4.18;;;;;;;20.16;28.10;94940.09;5077216;28;20055;-49
2021/11/20 08:19:17;;;;;;;7.18;4.38;;;;;;;20.08;28.50;94935.66;5076359;28;20047;-68
2021/11/20 08:22:04;;;;;;;7.05;4.20;;;;;;;20.41;27.41;94935.56;5044736;28;20052;-68
2021/11/20 08:24:36;;;;;;;4.22;3.80;;;;;;;19.88;28.36;94936.53;5052733;28;20056;-68
2021/11/20 08:27:07;;;;;;;4.82;3.88;;;;;;;19.89;28.30;94928.25;5054680;28;20044;-45
2021/11/20 08:29:41;;;;;;;5.60;3.60;;;;;;;19.83;28.31;94929.59;5072277;28;20048;-49
2021/11/20 08:32:10;;;;;;;5.03;3.90;;;;;;;20.11;28.19;94934.22;5056333;28;20048;-68
2021/11/20 08:34:56;;;;;;;4.63;3.78;;;;;;;20.07;28.07;94931.47;5045633;28;20052;-46
2021/11/20 08:37:59;;;;;;;7.85;4.68;;;;;;;19.96;28.36;94930.34;4977079;28;20123;-67
2021/11/20 08:40:43;;;;;;;10.27;4.25;;;;;;;19.80;28.93;94929.47;5052450;28;20052;-68
2021/11/20 08:43:10;;;;;;;6.50;4.63;;;;;;;19.69;29.09;94929.09;5059179;28;20048;-68
2021/11/20 08:45:44;;;;;;;4.72;4.22;;;;;;;19.96;28.96;94923.16;5056250;28;20591;-46
2021/11/20 08:48:16;;;;;;;6.72;4.22;;;;;;;20.38;28.21;94936.19;5039280;28;20040;-46
2021/11/20 08:50:51;;;;;;;13.57;3.72;;;;;;;19.96;29.08;94922.38;5056705;28;20044;-46
2021/11/20 08:53:19;;;;;;;5.15;4.05;;;;;;;19.98;29.36;94925.47;5038195;28;20375;-68
2021/11/20 08:55:47;;;;;;;6.22;4.13;;;;;;;20.28;28.93;94933.97;5042644;28;20486;-47
2021/11/20 08:58:35;;;;;;;6.95;4.15;;;;;;;20.42;28.84;94929.13;5044988;28;20048;-68
2021/11/20 09:01:15;;;;;;;6.90;4.15;;;;;;;20.10;29.41;94925.50;5058695;28;20044;-68
2021/11/20 09:04:09;;;;;;;9.07;4.15;;;;;;;20.22;29.22;94922.81;5058930;28;20048;-45
2021/11/20 09:06:46;;;;;;;6.13;3.90;;;;;;;20.56;29.02;94918.19;5058596;28;20048;-68
2021/11/20 09:09:40;;;;;;;6.95;3.78;;;;;;;20.77;28.63;94928.63;5058474;28;20051;-46
2021/11/20 09:12:23;;;;;;;4.65;3.83;;;;;;;20.72;28.72;94934.94;5058575;28;20041;-46
2021/11/20 09:14:55;;;;;;;9.65;4.50;;;;;;;20.15;29.82;94930.56;5058720;28;20052;-68
2021/11/20 09:17:27;;;;;;;5.18;4.10;;;;;;;20.81;28.91;94932.91;5075978;28;20358;-48
2021/11/20 09:19:54;;;;;;;6.38;4.18;;;;;;;20.21;29.92;94931.91;5058193;28;20063;-46
2021/11/20 09:22:25;;;;;;;5.25;4.43;;;;;;;20.36;29.45;94924.38;5056725;28;20056;-67
2021/11/20 09:25:05;;;;;;;5.13;3.55;;;;;;;20.73;28.93;94928.53;5076133;28;20044;-45
2021/11/20 09:27:36;;;;;;;5.32;4.03;;;;;;;20.23;29.82;94927.03;5075858;28;20048;-68
2021/11/20 09:30:10;;;;;;;4.28;3.75;;;;;;;20.50;29.55;94925.56;5057522;28;20056;-46
2021/11/20 09:32:39;;;;;;;4.70;3.60;;;;;;;21.54;27.76;94922.00;5057578;28;20052;-46
2021/11/20 09:35:16;;;;;;;4.72;3.97;;;;;;;20.63;29.48;94921.81;5058116;28;20048;-47
2021/11/20 09:38:04;;;;;;;5.55;4.22;;;;;;;20.76;28.86;94917.22;5075309;28;20044;-59
2021/11/20 09:40:34;;;;;;;5.28;3.97;;;;;;;20.43;29.76;94919.28;5058141;28;20059;-49
2021/11/20 09:43:06;;;;;;;4.68;4.15;;;;;;;20.70;29.22;94905.28;5057775;28;20059;-68
2021/11/20 09:45:41;;;;;;;6.28;4.07;;;;;;;20.40;29.83;94898.69;5057598;28;20055;-68
2021/11/20 09:48:17;;;;;;;5.95;4.30;;;;;;;20.08;30.57;94887.91;5057574;28;20049;-68
2021/11/20 09:50:54;;;;;;;4.30;3.83;;;;;;;21.14;28.79;94887.50;5054490;28;20363;-68
2021/11/20 09:53:23;;;;;;;4.38;3.53;;;;;;;20.69;29.40;94890.44;5057007;28;20395;-68
2021/11/20 09:56:11;;;;;;;4.45;3.90;;;;;;;20.24;30.37;94885.31;5075205;28;20071;-68
2021/11/20 09:58:42;;;;;;;4.90;3.70;;;;;;;20.27;30.14;94884.66;5075555;28;20045;-46
2021/11/20 10:01:21;;;;;;;3.97;3.40;;;;;;;20.74;29.48;94882.25;5074791;28;20051;-68
2021/11/20 10:04:04;;;;;;;4.68;3.50;;;;;;;20.81;29.30;94881.66;5074875;28;20044;-50
2021/11/20 10:06:48;;;;;;;4.25;3.83;;;;;;;20.67;29.71;94879.41;5075401;28;20366;-47
2021/11/20 10:09:20;;;;;;;5.10;3.65;;;;;;;21.34;28.70;94882.31;5075208;28;20048;-69
2021/11/20 10:12:24;;;;;;;4.22;3.70;;;;;;;20.31;30.09;94888.22;5075121;28;20044;-68
2021/11/20 10:14:57;;;;;;;5.15;3.60;;;;;;;20.21;30.68;94886.00;5074285;28;20052;-67
2021/11/20 10:17:36;;;;;;;6.72;4.22;;;;;;;20.09;30.87;94888.66;5053901;28;20055;-49
2021/11/20 10:20:26;;;;;;;7.63;4.22;;;;;;;20.22;30.60;94885.66;5057617;28;20048;-52
2021/11/20 10:23:01;;;;;;;6.35;4.15;;;;;;;20.24;30.61;94886.09;5073813;28;20056;-54
2021/11/20 10:25:34;;;;;;;7.60;4.55;;;;;;;20.68;29.89;94882.81;5074851;28;20393;-48
2021/11/20 10:28:24;;;;;;;5.20;4.00;;;;;;;20.89;29.39;94873.56;5066358;28;20049;-56
2021/11/20 10:31:05;;;;;;;5.40;4.13;;;;;;;20.20;30.81;94879.91;5037114;28;20049;-56
2021/11/20 10:33:49;;;;;;;6.25;3.80;;;;;;;20.14;30.79;94881.25;5045404;28;20044;-58
2021/11/20 10:36:32;;;;;;;4.47;3.90;;;;;;;20.84;29.77;94868.50;5074433;28;20055;-59
2021/11/20 10:39:09;;;;;;;5.00;4.15;;;;;;;20.38;30.28;94879.66;5074746;28;20040;-56
2021/11/20 10:41:40;;;;;;;4.35;3.88;;;;;;;20.38;30.40;94874.34;5074630;28;20048;-56
2021/11/20 10:44:10;;;;;;;5.00;4.25;;;;;;;20.50;30.14;94869.03;5074366;28;20040;-59
2021/11/20 10:47:02;;;;;;;5.82;4.97;;;;;;;19.91;31.43;94877.50;5074457;28;20044;-57
2021/11/20 10:50:06;;;;;;;6.73;5.87;;;;;;;20.53;30.31;94866.47;5073653;28;20059;-61
2021/11/20 10:53:12;;;;;;;5.25;4.57;;;;;;;20.16;30.84;94863.13;5066136;28;20056;-67
2021/11/20 10:56:19;;;;;;;6.70;5.28;;;;;;;20.17;31.17;94856.69;5052719;28;20374;-58
2021/11/20 10:59:11;;;;;;;6.10;5.50;;;;;;;20.27;30.90;94853.56;5074526;28;20044;-49
2021/11/20 11:02:12;;;;;;;7.10;6.00;;;;;;;20.33;30.57;94854.91;5073652;28;20067;-55
2021/11/20 11:05:01;;;;;;;8.27;6.38;;;;;;;20.24;31.00;94848.94;5074291;28;20048;-44
2021/11/20 11:07:43;;;;;;;7.78;6.20;;;;;;;21.40;29.44;94855.16;5072331;28;20059;-51
2021/11/20 11:10:18;;;;;;;6.75;6.07;;;;;;;20.83;29.81;94855.53;5073959;28;20044;-53
2021/11/20 11:12:50;;;;;;;6.72;6.03;;;;;;;20.50;30.33;94861.06;5074032;28;20067;-55
2021/11/20 11:15:32;;;;;;;6.57;5.97;;;;;;;20.39;31.03;94854.66;5066411;28;20044;-66
2021/11/20 11:18:36;;;;;;;7.55;5.88;;;;;;;20.70;30.31;94844.19;5074425;28;20044;-55
2021/11/20 11:21:29;;;;;;;6.40;5.80;;;;;;;20.38;30.42;94837.19;5072182;28;20059;-55
2021/11/20 11:24:15;;;;;;;6.45;5.38;;;;;;;20.41;30.41;94836.53;5050535;28;20060;-55
2021/11/20 11:27:27;;;;;;;6.38;5.40;;;;;;;20.65;30.00;94847.09;5064338;28;20051;-54
2021/11/20 11:30:05;;;;;;;6.43;5.83;;;;;;;21.26;29.10;94849.47;5024939;28;20048;-58
2021/11/20 11:32:34;;;;;;;6.82;5.75;;;;;;;20.90;29.61;94834.47;5071243;28;20044;-48
2021/11/20 11:35:13;;;;;;;6.32;5.68;;;;;;;20.67;30.21;94839.56;5046962;28;20363;-47
2021/11/20 11:38:12;;;;;;;6.80;6.10;;;;;;;20.65;30.31;94844.44;5061219;28;20041;-49
2021/11/20 11:40:48;;;;;;;9.13;6.15;;;;;;;20.59;30.18;94843.13;5058409;28;20052;-45
2021/11/20 11:43:26;;;;;;;6.70;6.00;;;;;;;20.81;29.98;94834.59;5053870;28;20477;-56
2021/11/20 11:46:18;;;;;;;9.60;6.30;;;;;;;21.02;29.72;94836.28;5069004;28;20056;-45
2021/11/20 11:48:54;;;;;;;6.80;5.78;;;;;;;20.61;30.49;94846.22;5074138;28;20044;-45
2021/11/20 11:52:17;;;;;;;6.68;5.88;;;;;;;20.80;30.20;94841.03;5052232;28;20053;-50
2021/11/20 11:55:15;;;;;;;7.72;6.57;;;;;;;21.89;28.25;94841.50;4991845;28;20058;-50
2021/11/20 11:58:09;;;;;;;21.90;16.08;;;;;;;21.19;29.16;94842.06;5050133;28;20053;-50
2021/11/20 12:00:59;;;;;;;19.38;17.40;;;;;;;21.59;28.71;94843.03;5067187;28;20055;-48
2021/11/20 12:03:27;;;;;;;9.05;6.88;;;;;;;21.05;28.93;94832.94;5073418;28;20056;-46
2021/11/20 12:06:18;;;;;;;9.60;8.60;;;;;;;21.19;28.65;94825.34;5073907;28;20048;-48
2021/11/20 12:08:50;;;;;;;10.30;9.35;;;;;;;21.19;28.86;94833.31;5077029;28;20063;-53
2021/11/20 12:11:37;;;;;;;6.15;5.30;;;;;;;21.26;28.68;94833.50;5076976;28;20048;-46
2021/11/20 12:14:18;;;;;;;5.88;4.90;;;;;;;21.94;27.49;94833.22;5076011;28;20047;-53